Time,TemperatureF,DewpointF,PressureIn,WindDirection,WindDirectionDegrees,WindSpeedMPH,WindSpeedGustMPH,Humidity,HourlyPrecipIn,Conditions,Clouds,dailyrainin,SoftwareType,DateUTC
2013-01-05 00:03:00,31.5,31.4,0.00,North,0,0.0,-999.0,100,0.00,,,-99.99,,2013-01-05 09:03:00,
2013-01-05 00:08:00,31.5,31.4,0.00,North,0,0.0,-999.0,100,0.00,,,-99.99,,2013-01-05 09:08:00,
2013-01-05 00:13:00,31.5,31.4,0.00,North,0,0.0,-999.0,100,0.00,,,-99.99,,2013-01-05 09:13:00,
2013-01-05 00:18:00,31.5,31.4,0.00,North,0,0.0,-999.0,100,0.00,,,-99.99,,2013-01-05 09:18:00,
2013-01-05 00:23:00,31.6,31.6,0.00,North,0,0.0,-999.0,100,0.00,,,-99.99,,2013-01-05 09:23:00,
2013-01-05 00:28:00,31.6,31.6,0.00,North,0,0.0,-999.0,100,0.00,,,-99.99,,2013-01-05 09:28:00,
2013-01-05 00:33:00,31.8,31.8,0.00,North,0,0.0,-999.0,100,0.00,,,-99.99,,2013-01-05 09:33:00,
2013-01-05 00:38:00,31.8,31.8,0.00,North,0,0.0,-999.0,100,0.00,,,-99.99,,2013-01-05 09:38:00,
2013-01-05 00:43:00,31.9,31.9,0.00,North,0,0.0,-999.0,100,0.00,,,-99.99,,2013-01-05 09:43:00,
2013-01-05 00:48:00,31.9,31.8,0.00,North,0,0.0,-999.0,100,0.00,,,-99.99,,2013-01-05 09:48:00,
2013-01-05 00:53:00,31.9,31.8,0.00,North,0,0.0,-999.0,100,0.00,,,-99.99,,2013-01-05 09:53:00,
2013-01-05 00:58:00,31.8,31.8,0.00,North,0,0.0,-999.0,100,0.00,,,-99.99,,2013-01-05 09:58:00,
2013-01-05 01:03:00,32.0,31.9,0.00,North,0,0.0,-999.0,100,0.00,,,-99.99,,2013-01-05 10:03:00,
2013-01-05 01:08:00,32.0,31.9,0.00,North,0,0.0,-999.0,100,0.00,,,-99.99,,2013-01-05 10:08:00,
2013-01-05 01:13:00,32.1,32.1,0.00,North,0,0.0,-999.0,100,0.00,,,-99.99,,2013-01-05 10:13:00,
2013-01-05 01:18:00,32.0,32.0,0.00,North,0,0.0,-999.0,100,0.00,,,-99.99,,2013-01-05 10:18:00,
2013-01-05 01:23:00,32.1,32.0,0.00,North,0,0.0,-999.0,100,0.00,,,-99.99,,2013-01-05 10:23:00,
2013-01-05 01:28:00,32.0,31.9,0.00,North,0,0.0,-999.0,100,0.00,,,-99.99,,2013-01-05 10:28:00,
2013-01-05 01:33:00,32.0,31.9,0.00,North,0,0.0,-999.0,100,0.00,,,-99.99,,2013-01-05 10:33:00,
2013-01-05 01:38:00,32.1,32.1,0.00,North,0,0.0,-999.0,100,0.00,,,-99.99,,2013-01-05 10:38:00,
2013-01-05 01:43:00,32.1,32.0,0.00,North,0,0.0,-999.0,100,0.00,,,-99.99,,2013-01-05 10:43:00,
2013-01-05 01:48:00,32.0,32.0,0.00,North,0,0.0,-999.0,100,0.00,,,-99.99,,2013-01-05 10:48:00,
2013-01-05 01:53:00,32.0,31.9,0.00,North,0,0.0,-999.0,100,0.00,,,-99.99,,2013-01-05 10:53:00,
2013-01-05 01:58:00,32.0,31.9,0.00,North,0,0.0,-999.0,100,0.00,,,-99.99,,2013-01-05 10:58:00,
2013-01-05 02:03:00,32.1,32.0,0.00,North,0,0.0,-999.0,100,0.00,,,-99.99,,2013-01-05 11:03:00,
2013-01-05 02:08:00,32.0,32.0,0.00,North,0,0.0,-999.0,100,0.00,,,-99.99,,2013-01-05 11:08:00,
2013-01-05 02:13:00,32.0,31.9,0.00,North,0,0.0,-999.0,100,0.00,,,-99.99,,2013-01-05 11:13:00,
2013-01-05 02:18:00,32.0,32.0,0.00,North,0,0.0,-999.0,100,0.00,,,-99.99,,2013-01-05 11:18:00,
2013-01-05 02:23:00,32.0,32.0,0.00,North,0,0.0,-999.0,100,0.00,,,-99.99,,2013-01-05 11:23:00,
2013-01-05 02:28:00,32.1,32.0,0.00,North,0,0.0,-999.0,100,0.00,,,-99.99,,2013-01-05 11:28:00,
2013-01-05 02:33:00,32.0,31.9,0.00,North,0,0.0,-999.0,100,0.00,,,-99.99,,2013-01-05 11:33:00,
2013-01-05 02:38:00,32.0,31.9,0.00,North,0,0.0,-999.0,100,0.00,,,-99.99,,2013-01-05 11:38:00,
2013-01-05 02:43:00,32.1,32.1,0.00,North,0,0.0,-999.0,100,0.00,,,-99.99,,2013-01-05 11:43:00,
2013-01-05 02:48:00,32.0,31.9,0.00,North,0,0.0,-999.0,100,0.00,,,-99.99,,2013-01-05 11:48:00,
2013-01-05 02:53:00,32.0,32.0,0.00,North,0,0.0,-999.0,100,0.00,,,-99.99,,2013-01-05 11:53:00,
2013-01-05 02:58:00,32.0,31.9,0.00,North,0,0.0,-999.0,100,0.00,,,-99.99,,2013-01-05 11:58:00,
2013-01-05 03:03:00,31.8,31.7,0.00,North,0,0.0,-999.0,100,0.00,,,-99.99,,2013-01-05 12:03:00,
2013-01-05 03:08:00,32.0,31.9,0.00,North,0,0.0,-999.0,100,0.00,,,-99.99,,2013-01-05 12:08:00,
2013-01-05 03:13:00,31.9,31.9,0.00,North,0,0.0,-999.0,100,0.00,,,-99.99,,2013-01-05 12:13:00,
2013-01-05 03:18:00,31.8,31.8,0.00,North,0,0.0,-999.0,100,0.00,,,-99.99,,2013-01-05 12:18:00,
2013-01-05 03:23:00,31.8,31.8,0.00,North,0,0.0,-999.0,100,0.00,,,-99.99,,2013-01-05 12:23:00,
2013-01-05 03:28:00,31.8,31.7,0.00,North,0,0.0,-999.0,100,0.00,,,-99.99,,2013-01-05 12:28:00,
2013-01-05 03:33:00,32.0,31.9,0.00,North,0,0.0,-999.0,100,0.00,,,-99.99,,2013-01-05 12:33:00,
2013-01-05 03:38:00,31.8,31.8,0.00,North,0,0.0,-999.0,100,0.00,,,-99.99,,2013-01-05 12:38:00,
2013-01-05 03:43:00,31.9,31.9,0.00,North,0,0.0,-999.0,100,0.00,,,-99.99,,2013-01-05 12:43:00,
2013-01-05 03:48:00,32.0,32.0,0.00,North,0,0.0,-999.0,100,0.00,,,-99.99,,2013-01-05 12:48:00,
2013-01-05 03:53:00,31.9,31.9,0.00,North,0,0.0,-999.0,100,0.00,,,-99.99,,2013-01-05 12:53:00,
2013-01-05 03:58:00,31.8,31.8,0.00,North,0,0.0,-999.0,99,0.00,,,-99.99,,2013-01-05 12:58:00,
2013-01-05 04:03:00,31.7,31.6,0.00,North,0,0.0,-999.0,99,0.00,,,-99.99,,2013-01-05 13:03:00,
2013-01-05 04:08:00,31.8,31.7,0.00,North,0,0.0,-999.0,99,0.00,,,-99.99,,2013-01-05 13:08:00,
2013-01-05 04:13:00,31.8,31.7,0.00,North,0,0.0,-999.0,99,0.00,,,-99.99,,2013-01-05 13:13:00,
2013-01-05 04:18:00,31.9,31.7,0.00,North,0,0.0,-999.0,99,0.00,,,-99.99,,2013-01-05 13:18:00,
2013-01-05 04:23:00,31.8,31.7,0.00,North,0,0.0,-999.0,99,0.00,,,-99.99,,2013-01-05 13:23:00,
2013-01-05 04:28:00,31.7,31.5,0.00,North,0,0.0,-999.0,99,0.00,,,-99.99,,2013-01-05 13:28:00,
2013-01-05 04:33:00,31.7,31.5,0.00,North,0,0.0,-999.0,99,0.00,,,-99.99,,2013-01-05 13:33:00,
2013-01-05 04:38:00,31.7,31.5,0.00,North,0,0.0,-999.0,99,0.00,,,-99.99,,2013-01-05 13:38:00,
2013-01-05 04:43:00,31.8,31.6,0.00,North,0,0.0,-999.0,99,0.00,,,-99.99,,2013-01-05 13:43:00,
2013-01-05 04:48:00,31.8,31.6,0.00,North,0,0.0,-999.0,99,0.00,,,-99.99,,2013-01-05 13:48:00,
2013-01-05 04:53:00,31.8,31.6,0.00,North,0,0.0,-999.0,99,0.00,,,-99.99,,2013-01-05 13:53:00,
2013-01-05 04:58:00,31.8,31.6,0.00,North,0,0.0,-999.0,99,0.00,,,-99.99,,2013-01-05 13:58:00,
2013-01-05 05:03:00,31.8,31.6,0.00,North,0,0.0,-999.0,99,0.00,,,-99.99,,2013-01-05 14:03:00,
2013-01-05 05:08:00,31.8,31.6,0.00,North,0,0.0,-999.0,99,0.00,,,-99.99,,2013-01-05 14:08:00,
2013-01-05 05:13:00,31.7,31.5,0.00,North,0,0.0,-999.0,99,0.00,,,-99.99,,2013-01-05 14:13:00,
2013-01-05 05:18:00,31.6,31.4,0.00,North,0,0.0,-999.0,99,0.00,,,-99.99,,2013-01-05 14:18:00,
2013-01-05 05:23:00,31.6,31.5,0.00,North,0,0.0,-999.0,99,0.00,,,-99.99,,2013-01-05 14:23:00,
2013-01-05 05:28:00,31.8,31.6,0.00,North,0,0.0,-999.0,99,0.00,,,-99.99,,2013-01-05 14:28:00,
2013-01-05 05:33:00,31.9,31.7,0.00,North,0,0.0,-999.0,99,0.00,,,-99.99,,2013-01-05 14:33:00,
2013-01-05 05:38:00,31.8,31.7,0.00,North,0,0.0,-999.0,99,0.00,,,-99.99,,2013-01-05 14:38:00,
2013-01-05 05:43:00,31.8,31.7,0.00,North,0,0.0,-999.0,99,0.00,,,-99.99,,2013-01-05 14:43:00,
2013-01-05 05:48:00,31.8,31.7,0.00,North,0,0.0,-999.0,99,0.00,,,-99.99,,2013-01-05 14:48:00,
2013-01-05 05:53:00,31.8,31.7,0.00,North,0,0.0,-999.0,99,0.00,,,-99.99,,2013-01-05 14:53:00,
2013-01-05 05:58:00,31.9,31.8,0.00,North,0,0.0,-999.0,99,0.00,,,-99.99,,2013-01-05 14:58:00,
2013-01-05 06:03:00,31.8,31.7,0.00,North,0,0.0,-999.0,99,0.00,,,-99.99,,2013-01-05 15:03:00,
2013-01-05 06:08:00,31.9,31.8,0.00,North,0,0.0,-999.0,99,0.00,,,-99.99,,2013-01-05 15:08:00,
2013-01-05 06:13:00,32.1,32.0,0.00,North,0,0.0,-999.0,99,0.00,,,-99.99,,2013-01-05 15:13:00,
2013-01-05 06:18:00,32.0,31.9,0.00,North,0,0.0,-999.0,99,0.00,,,-99.99,,2013-01-05 15:18:00,
2013-01-05 06:23:00,32.1,32.0,0.00,North,0,0.0,-999.0,99,0.00,,,-99.99,,2013-01-05 15:23:00,
2013-01-05 06:28:00,32.0,32.0,0.00,North,0,0.0,-999.0,99,0.00,,,-99.99,,2013-01-05 15:28:00,
2013-01-05 06:33:00,32.0,32.0,0.00,North,0,0.0,-999.0,99,0.00,,,-99.99,,2013-01-05 15:33:00,
2013-01-05 06:38:00,32.0,32.0,0.00,North,0,0.0,-999.0,100,0.00,,,-99.99,,2013-01-05 15:38:00,
2013-01-05 06:43:00,31.9,31.9,0.00,North,0,0.0,-999.0,99,0.00,,,-99.99,,2013-01-05 15:43:00,
2013-01-05 06:48:00,32.0,32.0,0.00,North,0,0.0,-999.0,100,0.00,,,-99.99,,2013-01-05 15:48:00,
2013-01-05 06:53:00,32.1,32.0,0.00,North,0,0.0,-999.0,100,0.00,,,-99.99,,2013-01-05 15:53:00,
2013-01-05 06:58:00,32.1,32.1,0.00,North,0,0.0,-999.0,100,0.00,,,-99.99,,2013-01-05 15:58:00,
2013-01-05 07:03:00,32.1,32.0,0.00,North,0,0.0,-999.0,100,0.00,,,-99.99,,2013-01-05 16:03:00,
2013-01-05 07:08:00,31.9,31.8,0.00,North,0,0.0,-999.0,100,0.00,,,-99.99,,2013-01-05 16:08:00,
2013-01-05 07:13:00,32.0,32.0,0.00,North,0,0.0,-999.0,100,0.00,,,-99.99,,2013-01-05 16:13:00,
2013-01-05 07:18:00,32.0,31.9,0.00,North,0,0.0,-999.0,100,0.00,,,-99.99,,2013-01-05 16:18:00,
2013-01-05 07:23:00,32.0,32.0,0.00,North,0,0.0,-999.0,100,0.00,,,-99.99,,2013-01-05 16:23:00,
2013-01-05 07:28:00,31.9,31.8,0.00,North,0,0.0,-999.0,100,0.00,,,-99.99,,2013-01-05 16:28:00,
2013-01-05 07:33:00,31.9,31.8,0.00,North,0,0.0,-999.0,100,0.00,,,-99.99,,2013-01-05 16:33:00,
2013-01-05 07:38:00,31.8,31.7,0.00,North,0,0.0,-999.0,100,0.00,,,-99.99,,2013-01-05 16:38:00,
2013-01-05 07:43:00,32.0,31.9,0.00,North,0,0.0,-999.0,100,0.00,,,-99.99,,2013-01-05 16:43:00,
2013-01-05 07:48:00,31.8,31.8,0.00,North,0,0.0,-999.0,100,0.00,,,-99.99,,2013-01-05 16:48:00,
2013-01-05 07:53:00,31.8,31.8,0.00,North,0,0.0,-999.0,100,0.00,,,-99.99,,2013-01-05 16:53:00,
2013-01-05 07:58:00,31.9,31.8,0.00,North,0,0.0,-999.0,100,0.00,,,-99.99,,2013-01-05 16:58:00,
2013-01-05 08:03:00,31.8,31.7,0.00,North,0,0.0,-999.0,100,0.00,,,-99.99,,2013-01-05 17:03:00,
2013-01-05 08:08:00,31.8,31.8,0.00,North,0,0.0,-999.0,100,0.00,,,-99.99,,2013-01-05 17:08:00,
2013-01-05 08:13:00,31.9,31.8,0.00,North,0,0.0,-999.0,100,0.00,,,-99.99,,2013-01-05 17:13:00,
2013-01-05 08:18:00,31.7,31.7,0.00,North,0,0.0,-999.0,100,0.00,,,-99.99,,2013-01-05 17:18:00,
2013-01-05 08:23:00,32.0,32.0,0.00,North,0,0.0,-999.0,100,0.00,,,-99.99,,2013-01-05 17:23:00,
2013-01-05 08:28:00,32.0,31.9,0.00,North,0,0.0,-999.0,100,0.00,,,-99.99,,2013-01-05 17:28:00,
2013-01-05 08:33:00,32.1,32.0,0.00,North,0,0.0,-999.0,100,0.00,,,-99.99,,2013-01-05 17:33:00,
2013-01-05 08:38:00,32.0,31.9,0.00,North,0,0.0,-999.0,100,0.00,,,-99.99,,2013-01-05 17:38:00,
2013-01-05 08:43:00,32.0,32.0,0.00,North,0,0.0,-999.0,100,0.00,,,-99.99,,2013-01-05 17:43:00,
2013-01-05 08:48:00,32.0,32.0,0.00,North,0,0.0,-999.0,100,0.00,,,-99.99,,2013-01-05 17:48:00,
2013-01-05 08:53:00,32.1,32.0,0.00,North,0,0.0,-999.0,100,0.00,,,-99.99,,2013-01-05 17:53:00,
2013-01-05 08:58:00,32.0,31.9,0.00,North,0,0.0,-999.0,100,0.00,,,-99.99,,2013-01-05 17:58:00,
2013-01-05 09:03:00,32.0,31.9,0.00,North,0,0.0,-999.0,100,0.00,,,-99.99,,2013-01-05 18:03:00,
2013-01-05 09:08:00,32.0,32.0,0.00,North,0,0.0,-999.0,100,0.00,,,-99.99,,2013-01-05 18:08:00,
2013-01-05 09:13:00,32.1,32.0,0.00,North,0,0.0,-999.0,100,0.00,,,-99.99,,2013-01-05 18:13:00,
2013-01-05 09:20:00,32.0,32.0,0.00,North,0,0.0,-999.0,100,0.00,,,-99.99,,2013-01-05 18:20:00,
2013-01-05 09:25:00,32.1,32.1,0.00,North,0,0.0,-999.0,100,0.00,,,-99.99,,2013-01-05 18:25:00,
2013-01-05 09:30:00,32.0,32.0,0.00,North,0,0.0,-999.0,100,0.00,,,-99.99,,2013-01-05 18:30:00,
2013-01-05 09:35:00,32.0,31.9,0.00,North,0,0.0,-999.0,100,0.00,,,-99.99,,2013-01-05 18:35:00,
2013-01-05 09:40:00,32.0,32.0,0.00,North,0,0.0,-999.0,100,0.00,,,-99.99,,2013-01-05 18:40:00,
2013-01-05 09:45:00,32.0,32.0,0.00,North,0,0.0,-999.0,100,0.00,,,-99.99,,2013-01-05 18:45:00,
2013-01-05 09:50:00,32.0,32.0,0.00,North,0,0.0,-999.0,100,0.00,,,-99.99,,2013-01-05 18:50:00,
2013-01-05 09:55:00,32.1,32.0,0.00,North,0,0.0,-999.0,100,0.00,,,-99.99,,2013-01-05 18:55:00,
2013-01-05 10:00:00,32.1,32.0,0.00,North,0,0.0,-999.0,100,0.00,,,-99.99,,2013-01-05 19:00:00,
2013-01-05 10:05:00,32.2,32.1,0.00,North,0,0.0,-999.0,100,0.00,,,-99.99,,2013-01-05 19:05:00,
2013-01-05 10:10:00,32.2,32.1,0.00,North,0,0.0,-999.0,100,0.00,,,-99.99,,2013-01-05 19:10:00,
2013-01-05 10:15:00,32.4,32.3,0.00,North,0,0.0,-999.0,100,0.00,,,-99.99,,2013-01-05 19:15:00,
2013-01-05 10:20:00,32.2,32.2,0.00,North,0,0.0,-999.0,100,0.00,,,-99.99,,2013-01-05 19:20:00,
2013-01-05 10:25:00,32.4,32.3,0.00,North,0,0.0,-999.0,100,0.00,,,-99.99,,2013-01-05 19:25:00,
2013-01-05 10:30:00,32.1,32.0,0.00,North,0,0.0,-999.0,100,0.00,,,-99.99,,2013-01-05 19:30:00,
2013-01-05 10:35:00,32.1,32.1,0.00,North,0,0.0,-999.0,100,0.00,,,-99.99,,2013-01-05 19:35:00,
2013-01-05 10:40:00,32.1,32.1,0.00,North,0,0.0,-999.0,100,0.00,,,-99.99,,2013-01-05 19:40:00,
2013-01-05 10:45:00,32.0,32.0,0.00,North,0,0.0,-999.0,100,0.00,,,-99.99,,2013-01-05 19:45:00,
2013-01-05 10:50:00,32.1,32.0,0.00,North,0,0.0,-999.0,100,0.00,,,-99.99,,2013-01-05 19:50:00,
2013-01-05 10:55:00,32.1,32.1,0.00,North,0,0.0,-999.0,100,0.00,,,-99.99,,2013-01-05 19:55:00,
2013-01-05 11:00:00,32.0,31.9,0.00,North,0,0.0,-999.0,100,0.00,,,-99.99,,2013-01-05 20:00:00,
2013-01-05 11:05:00,31.8,31.8,0.00,North,0,0.0,-999.0,100,0.00,,,-99.99,,2013-01-05 20:05:00,
2013-01-05 11:10:00,31.8,31.8,0.00,North,0,0.0,-999.0,100,0.00,,,-99.99,,2013-01-05 20:10:00,
2013-01-05 11:15:00,32.0,32.0,0.00,North,0,0.0,-999.0,100,0.00,,,-99.99,,2013-01-05 20:15:00,
2013-01-05 11:20:00,31.9,31.8,0.00,North,0,0.0,-999.0,100,0.00,,,-99.99,,2013-01-05 20:20:00,
2013-01-05 11:25:00,31.8,31.8,0.00,North,0,0.0,-999.0,100,0.00,,,-99.99,,2013-01-05 20:25:00,
2013-01-05 11:30:00,31.9,31.8,0.00,North,0,0.0,-999.0,100,0.00,,,-99.99,,2013-01-05 20:30:00,
2013-01-05 11:35:00,31.8,31.8,0.00,North,0,0.0,-999.0,100,0.00,,,-99.99,,2013-01-05 20:35:00,
2013-01-05 11:40:00,31.6,31.6,0.00,North,0,0.0,-999.0,100,0.00,,,-99.99,,2013-01-05 20:40:00,
2013-01-05 11:45:00,31.6,31.6,0.00,North,0,0.0,-999.0,100,0.00,,,-99.99,,2013-01-05 20:45:00,
2013-01-05 11:50:00,31.3,31.3,0.00,North,0,0.0,-999.0,100,0.00,,,-99.99,,2013-01-05 20:50:00,
2013-01-05 11:55:00,31.3,31.3,0.00,North,0,0.0,-999.0,100,0.00,,,-99.99,,2013-01-05 20:55:00,
2013-01-05 12:00:00,31.1,31.1,0.00,North,0,0.0,-999.0,100,0.00,,,-99.99,,2013-01-05 21:00:00,
2013-01-05 12:05:00,30.7,30.7,0.00,North,0,0.0,-999.0,99,0.00,,,-99.99,,2013-01-05 21:05:00,
2013-01-05 12:10:00,30.3,30.2,0.00,North,0,0.0,-999.0,99,0.00,,,-99.99,,2013-01-05 21:10:00,
2013-01-05 12:15:00,30.0,29.9,0.00,North,0,0.0,-999.0,99,0.00,,,-99.99,,2013-01-05 21:15:00,
2013-01-05 12:20:00,29.7,29.7,0.00,North,0,0.0,-999.0,99,0.00,,,-99.99,,2013-01-05 21:20:00,
2013-01-05 12:25:00,29.5,29.5,0.00,North,0,0.0,-999.0,100,0.00,,,-99.99,,2013-01-05 21:25:00,
2013-01-05 12:30:00,29.7,29.7,0.00,North,0,0.0,-999.0,100,0.00,,,-99.99,,2013-01-05 21:30:00,
2013-01-05 12:35:00,29.6,29.5,0.00,North,0,0.0,-999.0,100,0.00,,,-99.99,,2013-01-05 21:35:00,
2013-01-05 12:40:00,29.7,29.7,0.00,North,0,0.0,-999.0,100,0.00,,,-99.99,,2013-01-05 21:40:00,
2013-01-05 12:45:00,29.8,29.7,0.00,North,0,0.0,-999.0,100,0.00,,,-99.99,,2013-01-05 21:45:00,
2013-01-05 12:50:00,29.6,29.6,0.00,North,0,0.0,-999.0,99,0.00,,,-99.99,,2013-01-05 21:50:00,
2013-01-05 12:55:00,29.6,29.5,0.00,North,0,0.0,-999.0,99,0.00,,,-99.99,,2013-01-05 21:55:00,
2013-01-05 13:00:00,29.6,29.6,0.00,North,0,0.0,-999.0,99,0.00,,,-99.99,,2013-01-05 22:00:00,
2013-01-05 13:05:00,29.8,29.8,0.00,North,0,0.0,-999.0,99,0.00,,,-99.99,,2013-01-05 22:05:00,
2013-01-05 13:10:00,29.9,29.9,0.00,North,0,0.0,-999.0,99,0.00,,,-99.99,,2013-01-05 22:10:00,
2013-01-05 13:15:00,29.8,29.7,0.00,North,0,0.0,-999.0,99,0.00,,,-99.99,,2013-01-05 22:15:00,
2013-01-05 13:20:00,29.8,29.8,0.00,North,0,0.0,-999.0,99,0.00,,,-99.99,,2013-01-05 22:20:00,
2013-01-05 13:25:00,29.8,29.8,0.00,North,0,0.0,-999.0,99,0.00,,,-99.99,,2013-01-05 22:25:00,
2013-01-05 13:30:00,29.7,29.6,0.00,North,0,0.0,-999.0,99,0.00,,,-99.99,,2013-01-05 22:30:00,
2013-01-05 13:35:00,29.7,29.6,0.00,North,0,0.0,-999.0,99,0.00,,,-99.99,,2013-01-05 22:35:00,
2013-01-05 13:40:00,29.8,29.8,0.00,North,0,0.0,-999.0,99,0.00,,,-99.99,,2013-01-05 22:40:00,
2013-01-05 13:45:00,30.0,29.9,0.00,North,0,0.0,-999.0,99,0.00,,,-99.99,,2013-01-05 22:45:00,
2013-01-05 13:50:00,30.0,29.9,0.00,North,0,0.0,-999.0,99,0.00,,,-99.99,,2013-01-05 22:50:00,
2013-01-05 13:55:00,29.9,29.8,0.00,North,0,0.0,-999.0,99,0.00,,,-99.99,,2013-01-05 22:55:00,
2013-01-05 14:00:00,29.9,29.8,0.00,North,0,0.0,-999.0,99,0.00,,,-99.99,,2013-01-05 23:00:00,
2013-01-05 14:05:00,29.9,29.8,0.00,North,0,0.0,-999.0,99,0.00,,,-99.99,,2013-01-05 23:05:00,
2013-01-05 14:10:00,30.1,30.0,0.00,North,0,0.0,-999.0,99,0.00,,,-99.99,,2013-01-05 23:10:00,
2013-01-05 14:15:00,30.0,29.9,0.00,North,0,0.0,-999.0,99,0.00,,,-99.99,,2013-01-05 23:15:00,
2013-01-05 14:20:00,30.1,30.0,0.00,North,0,0.0,-999.0,99,0.00,,,-99.99,,2013-01-05 23:20:00,
2013-01-05 14:25:00,30.2,30.1,0.00,North,0,0.0,-999.0,99,0.00,,,-99.99,,2013-01-05 23:25:00,
2013-01-05 14:30:00,30.4,30.3,0.00,North,0,0.0,-999.0,99,0.00,,,-99.99,,2013-01-05 23:30:00,
2013-01-05 14:35:00,30.4,30.3,0.00,North,0,0.0,-999.0,99,0.00,,,-99.99,,2013-01-05 23:35:00,
2013-01-05 14:40:00,30.2,30.2,0.00,North,0,0.0,-999.0,99,0.00,,,-99.99,,2013-01-05 23:40:00,
2013-01-05 14:45:00,30.2,30.1,0.00,North,0,0.0,-999.0,99,0.00,,,-99.99,,2013-01-05 23:45:00,
2013-01-05 14:50:00,30.4,30.4,0.00,North,0,0.0,-999.0,99,0.00,,,-99.99,,2013-01-05 23:50:00,
2013-01-05 14:55:00,30.5,30.4,0.00,North,0,0.0,-999.0,99,0.00,,,-99.99,,2013-01-05 23:55:00,
2013-01-05 15:00:00,30.7,30.6,0.00,North,0,0.0,-999.0,99,0.00,,,-99.99,,2013-01-06 00:00:00,
2013-01-05 15:05:00,30.7,30.7,0.00,North,0,0.0,-999.0,99,0.00,,,-99.99,,2013-01-06 00:05:00,
2013-01-05 15:10:00,30.9,30.9,0.00,North,0,0.0,-999.0,99,0.00,,,-99.99,,2013-01-06 00:10:00,
2013-01-05 15:15:00,30.9,30.8,0.00,North,0,0.0,-999.0,99,0.00,,,-99.99,,2013-01-06 00:15:00,
2013-01-05 15:20:00,30.9,30.9,0.00,North,0,0.0,-999.0,99,0.00,,,-99.99,,2013-01-06 00:20:00,
2013-01-05 15:25:00,31.2,31.1,0.00,North,0,0.0,-999.0,99,0.00,,,-99.99,,2013-01-06 00:25:00,
2013-01-05 15:30:00,31.2,31.2,0.00,North,0,0.0,-999.0,99,0.00,,,-99.99,,2013-01-06 00:30:00,
2013-01-05 15:35:00,31.3,31.3,0.00,North,0,0.0,-999.0,99,0.00,,,-99.99,,2013-01-06 00:35:00,
2013-01-05 15:40:00,31.4,31.3,0.00,North,0,0.0,-999.0,99,0.00,,,-99.99,,2013-01-06 00:40:00,
2013-01-05 15:45:00,31.2,31.2,0.00,North,0,0.0,-999.0,99,0.00,,,-99.99,,2013-01-06 00:45:00,
2013-01-05 15:50:00,31.0,31.0,0.00,North,0,0.0,-999.0,99,0.00,,,-99.99,,2013-01-06 00:50:00,
2013-01-05 15:55:00,31.0,31.0,0.00,North,0,0.0,-999.0,99,0.00,,,-99.99,,2013-01-06 00:55:00,
2013-01-05 16:00:00,31.1,31.1,0.00,North,0,0.0,-999.0,99,0.00,,,-99.99,,2013-01-06 01:00:00,
2013-01-05 16:05:00,31.2,31.1,0.00,North,0,0.0,-999.0,99,0.00,,,-99.99,,2013-01-06 01:05:00,
2013-01-05 16:10:00,30.9,30.9,0.00,North,0,0.0,-999.0,99,0.00,,,-99.99,,2013-01-06 01:10:00,
2013-01-05 16:15:00,30.8,30.8,0.00,North,0,0.0,-999.0,99,0.00,,,-99.99,,2013-01-06 01:15:00,
2013-01-05 16:20:00,30.7,30.6,0.00,North,0,0.0,-999.0,99,0.00,,,-99.99,,2013-01-06 01:20:00,
2013-01-05 16:25:00,30.7,30.7,0.00,North,0,0.0,-999.0,99,0.00,,,-99.99,,2013-01-06 01:25:00,
2013-01-05 16:30:00,30.6,30.6,0.00,North,0,0.0,-999.0,99,0.00,,,-99.99,,2013-01-06 01:30:00,
2013-01-05 16:35:00,30.5,30.5,0.00,North,0,0.0,-999.0,99,0.00,,,-99.99,,2013-01-06 01:35:00,
2013-01-05 16:40:00,30.8,30.8,0.00,North,0,0.0,-999.0,99,0.00,,,-99.99,,2013-01-06 01:40:00,
2013-01-05 16:45:00,30.7,30.6,0.00,North,0,0.0,-999.0,99,0.00,,,-99.99,,2013-01-06 01:45:00,
2013-01-05 16:50:00,30.6,30.5,0.00,North,0,0.0,-999.0,99,0.00,,,-99.99,,2013-01-06 01:50:00,
2013-01-05 16:55:00,30.6,30.5,0.00,North,0,0.0,-999.0,99,0.00,,,-99.99,,2013-01-06 01:55:00,
2013-01-05 17:00:00,30.6,30.6,0.00,North,0,0.0,-999.0,99,0.00,,,-99.99,,2013-01-06 02:00:00,
2013-01-05 17:05:00,30.7,30.6,0.00,North,0,0.0,-999.0,99,0.00,,,-99.99,,2013-01-06 02:05:00,
2013-01-05 17:10:00,30.6,30.6,0.00,North,0,0.0,-999.0,99,0.00,,,-99.99,,2013-01-06 02:10:00,
2013-01-05 17:15:00,30.6,30.6,0.00,North,0,0.0,-999.0,99,0.00,,,-99.99,,2013-01-06 02:15:00,
2013-01-05 17:20:00,30.5,30.5,0.00,North,0,0.0,-999.0,99,0.00,,,-99.99,,2013-01-06 02:20:00,
2013-01-05 17:25:00,30.4,30.4,0.00,North,0,0.0,-999.0,99,0.00,,,-99.99,,2013-01-06 02:25:00,
2013-01-05 17:30:00,30.3,30.3,0.00,North,0,0.0,-999.0,99,0.00,,,-99.99,,2013-01-06 02:30:00,
2013-01-05 17:35:00,30.3,30.3,0.00,North,0,0.0,-999.0,99,0.00,,,-99.99,,2013-01-06 02:35:00,
2013-01-05 17:40:00,30.2,30.2,0.00,North,0,0.0,-999.0,99,0.00,,,-99.99,,2013-01-06 02:40:00,
2013-01-05 17:45:00,30.2,30.2,0.00,North,0,0.0,-999.0,99,0.00,,,-99.99,,2013-01-06 02:45:00,
2013-01-05 17:50:00,30.1,30.1,0.00,North,0,0.0,-999.0,99,0.00,,,-99.99,,2013-01-06 02:50:00,
2013-01-05 17:55:00,30.1,30.1,0.00,North,0,0.0,-999.0,99,0.00,,,-99.99,,2013-01-06 02:55:00,
2013-01-05 18:00:00,30.1,30.1,0.00,North,0,0.0,-999.0,99,0.00,,,-99.99,,2013-01-06 03:00:00,
2013-01-05 18:05:00,30.1,30.1,0.00,North,0,0.0,-999.0,99,0.00,,,-99.99,,2013-01-06 03:05:00,
2013-01-05 18:10:00,30.2,30.1,0.00,North,0,0.0,-999.0,99,0.00,,,-99.99,,2013-01-06 03:10:00,
2013-01-05 18:15:00,30.2,30.2,0.00,North,0,0.0,-999.0,99,0.00,,,-99.99,,2013-01-06 03:15:00,
2013-01-05 18:20:00,30.2,30.2,0.00,North,0,0.0,-999.0,99,0.00,,,-99.99,,2013-01-06 03:20:00,
2013-01-05 18:25:00,30.4,30.3,0.00,North,0,0.0,-999.0,99,0.00,,,-99.99,,2013-01-06 03:25:00,
2013-01-05 18:30:00,30.4,30.3,0.00,North,0,0.0,-999.0,99,0.00,,,-99.99,,2013-01-06 03:30:00,
2013-01-05 18:35:00,30.4,30.3,0.00,North,0,0.0,-999.0,99,0.00,,,-99.99,,2013-01-06 03:35:00,
2013-01-05 18:40:00,30.3,30.3,0.00,North,0,0.0,-999.0,99,0.00,,,-99.99,,2013-01-06 03:40:00,
2013-01-05 18:47:00,30.1,30.1,0.00,North,0,0.0,-999.0,99,0.00,,,-99.99,,2013-01-06 03:47:00,
2013-01-05 18:52:00,30.1,30.0,0.00,North,0,0.0,-999.0,99,0.00,,,-99.99,,2013-01-06 03:52:00,
2013-01-05 18:57:00,30.1,30.0,0.00,North,0,0.0,-999.0,99,0.00,,,-99.99,,2013-01-06 03:57:00,
2013-01-05 19:02:00,30.1,30.0,0.00,North,0,0.0,-999.0,99,0.00,,,-99.99,,2013-01-06 04:02:00,
2013-01-05 19:07:00,30.1,30.0,0.00,North,0,0.0,-999.0,99,0.00,,,-99.99,,2013-01-06 04:07:00,
2013-01-05 19:12:00,30.0,29.9,0.00,North,0,0.0,-999.0,99,0.00,,,-99.99,,2013-01-06 04:12:00,
2013-01-05 19:17:00,30.1,30.0,0.00,North,0,0.0,-999.0,99,0.00,,,-99.99,,2013-01-06 04:17:00,
2013-01-05 19:22:00,30.1,30.0,0.00,North,0,0.0,-999.0,99,0.00,,,-99.99,,2013-01-06 04:22:00,
2013-01-05 19:27:00,30.1,30.0,0.00,North,0,0.0,-999.0,99,0.00,,,-99.99,,2013-01-06 04:27:00,
2013-01-05 19:32:00,30.2,30.1,0.00,North,0,0.0,-999.0,99,0.00,,,-99.99,,2013-01-06 04:32:00,
2013-01-05 19:37:00,30.3,30.2,0.00,North,0,0.0,-999.0,99,0.00,,,-99.99,,2013-01-06 04:37:00,
2013-01-05 19:42:00,30.2,30.1,0.00,North,0,0.0,-999.0,99,0.00,,,-99.99,,2013-01-06 04:42:00,
2013-01-05 19:47:00,30.2,30.1,0.00,North,0,0.0,-999.0,99,0.00,,,-99.99,,2013-01-06 04:47:00,
2013-01-05 19:52:00,30.1,29.9,0.00,North,0,0.0,-999.0,99,0.00,,,-99.99,,2013-01-06 04:52:00,
2013-01-05 19:58:00,30.0,29.8,0.00,North,0,0.0,-999.0,99,0.00,,,-99.99,,2013-01-06 04:58:00,
2013-01-05 20:00:00,30.0,29.9,0.00,North,0,0.0,-999.0,99,0.00,,,-99.99,,2013-01-06 05:00:00,
2013-01-05 20:02:00,30.1,29.9,0.00,North,0,0.0,-999.0,99,0.00,,,-99.99,,2013-01-06 05:02:00,
2013-01-05 20:03:00,30.0,29.9,0.00,North,0,0.0,-999.0,99,0.00,,,-99.99,,2013-01-06 05:03:00,
2013-01-05 20:07:00,29.8,29.7,0.00,North,0,0.0,-999.0,99,0.00,,,-99.99,,2013-01-06 05:07:00,
2013-01-05 20:12:00,30.0,29.9,0.00,North,0,0.0,-999.0,99,0.00,,,-99.99,,2013-01-06 05:12:00,
2013-01-05 20:17:00,30.0,29.9,0.00,North,0,0.0,-999.0,99,0.00,,,-99.99,,2013-01-06 05:17:00,
2013-01-05 20:22:00,30.0,29.8,0.00,North,0,0.0,-999.0,99,0.00,,,-99.99,,2013-01-06 05:22:00,
2013-01-05 20:23:00,30.0,29.9,0.00,North,0,0.0,-999.0,99,0.00,,,-99.99,,2013-01-06 05:23:00,
2013-01-05 20:28:00,29.8,29.7,0.00,North,0,0.0,-999.0,99,0.00,,,-99.99,,2013-01-06 05:28:00,
2013-01-05 20:33:00,29.9,29.8,0.00,North,0,0.0,-999.0,99,0.00,,,-99.99,,2013-01-06 05:33:00,
2013-01-05 20:38:00,29.8,29.7,0.00,North,0,0.0,-999.0,99,0.00,,,-99.99,,2013-01-06 05:38:00,
2013-01-05 20:43:00,29.8,29.6,0.00,North,0,0.0,-999.0,99,0.00,,,-99.99,,2013-01-06 05:43:00,
2013-01-05 20:48:00,29.8,29.6,0.00,North,0,0.0,-999.0,99,0.00,,,-99.99,,2013-01-06 05:48:00,
2013-01-05 20:53:00,29.8,29.6,0.00,North,0,0.0,-999.0,99,0.00,,,-99.99,,2013-01-06 05:53:00,
2013-01-05 20:58:00,29.9,29.8,0.00,North,0,0.0,-999.0,99,0.00,,,-99.99,,2013-01-06 05:58:00,
2013-01-05 21:03:00,29.9,29.7,0.00,North,0,0.0,-999.0,99,0.00,,,-99.99,,2013-01-06 06:03:00,
2013-01-05 21:08:00,30.0,29.8,0.00,North,0,0.0,-999.0,99,0.00,,,-99.99,,2013-01-06 06:08:00,
2013-01-05 21:13:00,29.9,29.7,0.00,North,0,0.0,-999.0,99,0.00,,,-99.99,,2013-01-06 06:13:00,
2013-01-05 21:19:00,30.1,29.9,0.00,North,0,0.0,-999.0,99,0.00,,,-99.99,,2013-01-06 06:19:00,
2013-01-05 21:24:00,30.2,30.0,0.00,North,0,0.0,-999.0,99,0.00,,,-99.99,,2013-01-06 06:24:00,
2013-01-05 21:29:00,30.2,30.1,0.00,North,0,0.0,-999.0,99,0.00,,,-99.99,,2013-01-06 06:29:00,
2013-01-05 21:34:00,30.3,30.2,0.00,North,0,0.0,-999.0,99,0.00,,,-99.99,,2013-01-06 06:34:00,
2013-01-05 21:39:00,30.6,30.4,0.00,North,0,0.0,-999.0,99,0.00,,,-99.99,,2013-01-06 06:39:00,
2013-01-05 21:44:00,30.6,30.4,0.00,North,0,0.0,-999.0,99,0.00,,,-99.99,,2013-01-06 06:44:00,
2013-01-05 21:49:00,30.6,30.5,0.00,North,0,0.0,-999.0,99,0.00,,,-99.99,,2013-01-06 06:49:00,
2013-01-05 21:54:00,30.6,30.5,0.00,North,0,0.0,-999.0,99,0.00,,,-99.99,,2013-01-06 06:54:00,
2013-01-05 22:00:00,30.7,30.5,0.00,North,0,0.0,-999.0,99,0.00,,,-99.99,,2013-01-06 07:00:00,
2013-01-05 22:05:00,30.7,30.5,0.00,North,0,0.0,-999.0,99,0.00,,,-99.99,,2013-01-06 07:05:00,
2013-01-05 22:10:00,30.5,30.3,0.00,North,0,0.0,-999.0,99,0.00,,,-99.99,,2013-01-06 07:10:00,
2013-01-05 22:15:00,30.5,30.3,0.00,North,0,0.0,-999.0,99,0.00,,,-99.99,,2013-01-06 07:15:00,
2013-01-05 22:20:00,30.6,30.4,0.00,North,0,0.0,-999.0,99,0.00,,,-99.99,,2013-01-06 07:20:00,
2013-01-05 22:25:00,30.5,30.3,0.00,North,0,0.0,-999.0,99,0.00,,,-99.99,,2013-01-06 07:25:00,
2013-01-05 22:30:00,30.7,30.6,0.00,North,0,0.0,-999.0,99,0.00,,,-99.99,,2013-01-06 07:30:00,
2013-01-05 22:36:00,30.4,30.2,0.00,North,0,0.0,-999.0,99,0.00,,,-99.99,,2013-01-06 07:36:00,
2013-01-05 22:41:00,30.3,30.1,0.00,North,0,0.0,-999.0,99,0.00,,,-99.99,,2013-01-06 07:41:00,
2013-01-05 22:46:00,30.2,30.0,0.00,North,0,0.0,-999.0,99,0.00,,,-99.99,,2013-01-06 07:46:00,
2013-01-05 22:51:00,30.2,30.0,0.00,North,0,0.0,-999.0,99,0.00,,,-99.99,,2013-01-06 07:51:00,
2013-01-05 22:56:00,30.2,30.0,0.00,North,0,0.0,-999.0,99,0.00,,,-99.99,,2013-01-06 07:56:00,
2013-01-05 23:01:00,30.1,29.9,0.00,North,0,0.0,-999.0,99,0.00,,,-99.99,,2013-01-06 08:01:00,
2013-01-05 23:06:00,30.2,30.0,0.00,North,0,0.0,-999.0,99,0.00,,,-99.99,,2013-01-06 08:06:00,
2013-01-05 23:11:00,30.1,29.8,0.00,North,0,0.0,-999.0,98,0.00,,,-99.99,,2013-01-06 08:11:00,
2013-01-05 23:16:00,30.0,29.7,0.00,North,0,0.0,-999.0,98,0.00,,,-99.99,,2013-01-06 08:16:00,
2013-01-05 23:21:00,30.0,29.5,0.00,North,0,0.0,-999.0,98,0.00,,,-99.99,,2013-01-06 08:21:00,
2013-01-05 23:26:00,29.9,29.4,0.00,North,0,0.0,-999.0,98,0.00,,,-99.99,,2013-01-06 08:26:00,
2013-01-05 23:31:00,29.8,29.3,0.00,North,0,0.0,-999.0,98,0.00,,,-99.99,,2013-01-06 08:31:00,
2013-01-05 23:36:00,29.9,29.5,0.00,North,0,0.0,-999.0,98,0.00,,,-99.99,,2013-01-06 08:36:00,
2013-01-05 23:41:00,30.0,29.5,0.00,North,0,0.0,-999.0,98,0.00,,,-99.99,,2013-01-06 08:41:00,
2013-01-05 23:46:00,30.1,29.6,0.00,North,0,0.0,-999.0,98,0.00,,,-99.99,,2013-01-06 08:46:00,
2013-01-05 23:52:00,29.6,29.2,0.00,North,0,0.0,-999.0,98,0.00,,,-99.99,,2013-01-06 08:52:00,
2013-01-05 23:57:00,29.7,29.3,0.00,North,0,0.0,-999.0,98,0.00,,,-99.99,,2013-01-06 08:57:00,